createdAt,value
2023-04-09T00:01:37.007Z,41.23
2023-04-09T00:04:05.194Z,43.53
2023-04-09T00:06:33.035Z,41.73
2023-04-09T00:09:08.546Z,40.90
2023-04-09T00:11:52.988Z,40.13
2023-04-09T00:14:23.613Z,45.13
2023-04-09T00:16:53.955Z,41.30
2023-04-09T00:19:24.618Z,36.73
2023-04-09T00:22:01.385Z,43.87
2023-04-09T00:24:33.360Z,46.37
2023-04-09T00:27:06.179Z,46.97
2023-04-09T00:29:34.488Z,53.13
2023-04-09T00:32:07.944Z,39.03
2023-04-09T00:34:43.481Z,37.97
2023-04-09T00:37:13.598Z,50.27
2023-04-09T00:39:41.869Z,44.97
2023-04-09T00:42:15.514Z,47.30
2023-04-09T00:44:45.776Z,41.50
2023-04-09T00:47:13.359Z,47.30
2023-04-09T00:49:40.931Z,37.40
2023-04-09T00:52:13.382Z,47.70
2023-04-09T00:54:41.859Z,36.87
2023-04-09T00:57:10.717Z,40.73
2023-04-09T00:59:38.996Z,40.27
2023-04-09T01:02:06.915Z,42.63
2023-04-09T01:04:36.885Z,45.57
2023-04-09T01:07:11.658Z,41.77
2023-04-09T01:09:45.708Z,38.40
2023-04-09T01:12:24.464Z,39.97
2023-04-09T01:14:59.413Z,46.67
2023-04-09T01:17:34.397Z,42.60
2023-04-09T01:20:08.640Z,42.60
2023-04-09T01:22:57.438Z,42.73
2023-04-09T01:25:43.347Z,37.27
2023-04-09T01:28:18.277Z,46.23
2023-04-09T01:30:49.410Z,46.90
2023-04-09T01:33:19.607Z,43.93
2023-04-09T01:35:49.496Z,44.77
2023-04-09T01:38:20.138Z,42.63
2023-04-09T01:40:48.500Z,48.73
2023-04-09T01:43:17.610Z,40.77
2023-04-09T01:45:45.342Z,49.03
2023-04-09T01:48:13.845Z,37.20
2023-04-09T01:50:41.476Z,50.23
2023-04-09T01:53:13.466Z,36.53
2023-04-09T01:55:41.277Z,42.13
2023-04-09T01:58:18.985Z,39.60
2023-04-09T02:00:48.608Z,44.80
2023-04-09T02:03:24.926Z,42.60
2023-04-09T02:05:58.842Z,38.50
2023-04-09T02:08:27.873Z,41.97
2023-04-09T02:10:58.724Z,39.13
2023-04-09T02:13:28.127Z,43.90
2023-04-09T02:15:56.507Z,42.83
2023-04-09T02:18:26.596Z,52.10
2023-04-09T02:20:54.433Z,48.53
2023-04-09T02:23:22.007Z,44.07
2023-04-09T02:25:49.637Z,43.10
2023-04-09T02:28:16.906Z,45.03
2023-04-09T02:30:44.935Z,43.83
2023-04-09T02:33:12.177Z,48.60
2023-04-09T02:35:39.478Z,40.23
2023-04-09T02:38:12.875Z,52.73
2023-04-09T02:40:40.778Z,45.20
2023-04-09T02:43:08.433Z,43.73
2023-04-09T02:45:36.228Z,41.40
2023-04-09T02:48:04.784Z,50.10
2023-04-09T02:50:32.047Z,43.37
2023-04-09T02:52:59.349Z,44.70
2023-04-09T02:55:26.661Z,39.70
2023-04-09T02:57:53.937Z,42.73
2023-04-09T03:00:21.290Z,47.87
2023-04-09T03:02:49.155Z,48.93
2023-04-09T03:05:17.242Z,45.57
2023-04-09T03:07:44.568Z,54.60
2023-04-09T03:10:11.945Z,58.13
2023-04-09T03:12:39.308Z,73.77
2023-04-09T03:15:07.569Z,89.20
2023-04-09T03:17:34.954Z,96.60
2023-04-09T03:20:02.537Z,104.20
2023-04-09T03:22:35.530Z,110.27
2023-04-09T03:25:03.301Z,85.23
2023-04-09T03:27:31.795Z,61.40
2023-04-09T03:29:59.124Z,104.73
2023-04-09T03:32:26.525Z,74.50
2023-04-09T03:34:54.062Z,170.17
2023-04-09T03:37:21.376Z,88.47
2023-04-09T03:39:49.280Z,201.37
2023-04-09T03:42:16.559Z,93.93
2023-04-09T03:44:43.907Z,65.70
2023-04-09T03:47:11.229Z,69.23
2023-04-09T03:49:38.497Z,96.27
2023-04-09T03:52:07.071Z,81.03
2023-04-09T03:54:34.331Z,81.77
2023-04-09T03:57:03.098Z,60.00
2023-04-09T03:59:30.380Z,62.93
2023-04-09T04:01:57.731Z,59.03
2023-04-09T04:04:25.080Z,52.23
2023-04-09T04:06:52.375Z,80.07
2023-04-09T04:09:19.640Z,74.03
2023-04-09T04:11:47.133Z,94.97
2023-04-09T04:14:15.783Z,55.27
2023-04-09T04:16:43.633Z,61.70
2023-04-09T04:19:11.042Z,58.03
2023-04-09T04:21:38.320Z,74.20
2023-04-09T04:24:06.054Z,47.63
2023-04-09T04:26:33.321Z,48.00
2023-04-09T04:29:00.661Z,54.10
2023-04-09T04:31:29.007Z,63.33
2023-04-09T04:33:56.340Z,63.00
2023-04-09T04:36:23.792Z,58.03
2023-04-09T04:38:51.631Z,57.33
2023-04-09T04:41:20.236Z,50.67
2023-04-09T04:43:48.359Z,66.50
2023-04-09T04:46:16.239Z,70.53
2023-04-09T04:48:44.717Z,71.77
2023-04-09T04:51:13.277Z,65.23
2023-04-09T04:53:40.750Z,92.10
2023-04-09T04:56:12.190Z,117.50
2023-04-09T04:58:39.957Z,95.93
2023-04-09T05:01:07.555Z,99.90
2023-04-09T05:03:35.088Z,120.03
2023-04-09T05:06:03.774Z,130.23
2023-04-09T05:08:31.235Z,121.37
2023-04-09T05:10:58.568Z,99.67
2023-04-09T05:13:26.084Z,83.97
2023-04-09T05:15:53.675Z,99.20
2023-04-09T05:18:21.456Z,86.27
2023-04-09T05:20:49.080Z,55.17
2023-04-09T05:23:17.621Z,102.47
2023-04-09T05:25:45.546Z,68.70
2023-04-09T05:28:19.835Z,95.00
2023-04-09T05:30:51.413Z,57.93
2023-04-09T05:33:39.876Z,67.07
2023-04-09T05:36:30.704Z,55.63
2023-04-09T05:39:21.880Z,55.37
2023-04-09T05:42:22.588Z,61.90
2023-04-09T05:48:43.946Z,47.07
2023-04-09T05:51:32.043Z,40.53
2023-04-09T05:54:40.368Z,43.10
2023-04-09T05:57:37.627Z,55.87
2023-04-09T06:00:14.032Z,45.13
2023-04-09T06:02:49.905Z,44.70
2023-04-09T06:05:17.810Z,39.87
2023-04-09T06:07:46.968Z,35.70
2023-04-09T06:10:15.160Z,32.97
2023-04-09T06:12:43.481Z,31.43
2023-04-09T06:15:11.243Z,32.20
2023-04-09T06:17:38.538Z,33.87
2023-04-09T06:20:06.790Z,37.77
2023-04-09T06:22:34.007Z,32.67
2023-04-09T06:25:01.264Z,32.23
2023-04-09T06:27:28.775Z,30.10
2023-04-09T06:29:57.469Z,42.80
2023-04-09T06:32:25.480Z,41.27
2023-04-09T06:34:52.879Z,42.70
2023-04-09T06:37:20.221Z,43.30
2023-04-09T06:40:00.668Z,41.10
2023-04-09T06:42:28.926Z,40.53
2023-04-09T06:44:57.667Z,42.10
2023-04-09T06:47:25.478Z,38.73
2023-04-09T06:49:52.931Z,36.73
2023-04-09T06:52:20.550Z,43.30
2023-04-09T06:54:48.203Z,39.90
2023-04-09T06:57:15.785Z,44.23
2023-04-09T06:59:43.174Z,39.77
2023-04-09T07:02:12.026Z,40.53
2023-04-09T07:04:39.918Z,47.97
2023-04-09T07:07:07.564Z,46.07
2023-04-09T07:09:34.947Z,50.70
2023-04-09T07:12:02.597Z,49.77
2023-04-09T07:14:29.998Z,47.63
2023-04-09T07:16:57.501Z,56.70
2023-04-09T07:19:26.295Z,48.50
2023-04-09T07:21:53.695Z,55.90
2023-04-09T07:24:21.237Z,51.20
2023-04-09T07:26:51.193Z,54.10
2023-04-09T07:29:21.975Z,55.80
2023-04-09T07:31:49.281Z,64.70
2023-04-09T07:34:16.679Z,58.10
2023-04-09T07:36:44.814Z,69.00
2023-04-09T07:39:12.098Z,63.60
2023-04-09T07:41:39.460Z,65.70
2023-04-09T07:44:06.952Z,56.37
2023-04-09T07:46:34.234Z,60.43
2023-04-09T07:49:01.525Z,58.73
2023-04-09T07:51:28.788Z,68.23
2023-04-09T07:53:56.723Z,73.40
2023-04-09T07:56:24.071Z,66.57
2023-04-09T07:58:51.713Z,75.67
2023-04-09T08:01:20.963Z,72.70
2023-04-09T08:03:48.572Z,77.60
2023-04-09T08:06:15.941Z,73.33
2023-04-09T08:08:44.223Z,69.83
2023-04-09T08:11:12.109Z,65.83
2023-04-09T08:13:39.793Z,57.13
2023-04-09T08:16:07.134Z,63.80
2023-04-09T08:18:34.443Z,64.90
2023-04-09T08:21:05.404Z,58.40
2023-04-09T08:23:32.660Z,60.53
2023-04-09T08:25:59.986Z,55.10
2023-04-09T08:28:28.196Z,58.87
2023-04-09T08:30:55.842Z,52.47
2023-04-09T08:33:23.175Z,57.77
2023-04-09T08:35:50.606Z,55.73
2023-04-09T08:38:23.857Z,51.37
2023-04-09T08:40:51.324Z,44.37
2023-04-09T08:43:23.635Z,48.40
2023-04-09T08:45:58.654Z,48.97
2023-04-09T08:48:26.330Z,51.23
2023-04-09T08:50:54.173Z,53.83
2023-04-09T08:53:22.663Z,53.13
2023-04-09T08:55:49.975Z,47.73
2023-04-09T08:58:17.219Z,43.93
2023-04-09T09:00:44.540Z,50.90
2023-04-09T09:03:12.886Z,48.07
2023-04-09T09:05:41.684Z,50.20
2023-04-09T09:08:09.963Z,51.33
2023-04-09T09:10:42.262Z,48.13
2023-04-09T09:13:23.127Z,48.37
2023-04-09T09:15:54.495Z,43.07
2023-04-09T09:18:37.285Z,53.47
2023-04-09T09:21:11.466Z,45.03
2023-04-09T09:23:38.855Z,37.13
2023-04-09T09:26:12.912Z,38.90
2023-04-09T09:28:41.147Z,38.10
2023-04-09T09:31:09.392Z,39.27
2023-04-09T09:33:37.741Z,36.13
2023-04-09T09:36:05.778Z,30.47
2023-04-09T09:38:33.106Z,35.87
2023-04-09T09:41:17.372Z,39.50
2023-04-09T09:43:45.373Z,38.53
2023-04-09T09:46:13.278Z,31.57
2023-04-09T09:48:41.717Z,37.83
2023-04-09T09:51:10.481Z,36.30
2023-04-09T09:53:39.170Z,34.40
2023-04-09T09:56:10.967Z,35.37
2023-04-09T09:58:41.576Z,35.40
2023-04-09T10:01:10.957Z,41.63
2023-04-09T10:03:42.202Z,39.87
2023-04-09T10:06:11.100Z,43.13
2023-04-09T10:08:41.113Z,42.07
2023-04-09T10:11:09.044Z,46.50
2023-04-09T10:13:43.584Z,42.90
2023-04-09T10:16:11.135Z,45.90
2023-04-09T10:18:39.238Z,44.27
2023-04-09T10:21:16.246Z,42.40
2023-04-09T10:23:48.755Z,43.50
2023-04-09T10:26:18.070Z,37.63
2023-04-09T10:28:45.684Z,38.53
2023-04-09T10:31:14.113Z,39.00
2023-04-09T10:33:49.471Z,36.13
2023-04-09T10:36:21.714Z,38.53
2023-04-09T10:38:50.213Z,42.03
2023-04-09T10:41:27.349Z,41.50
2023-04-09T10:43:54.914Z,40.23
2023-04-09T10:46:27.417Z,38.77
2023-04-09T10:49:11.458Z,38.93
2023-04-09T10:51:39.979Z,41.83
2023-04-09T10:54:32.938Z,42.67
2023-04-09T10:57:14.208Z,43.40
2023-04-09T10:59:44.171Z,40.00
2023-04-09T11:02:40.030Z,41.67
2023-04-09T11:05:18.253Z,45.53
2023-04-09T11:07:52.261Z,41.17
2023-04-09T11:10:22.361Z,30.30
2023-04-09T11:12:50.278Z,44.50
2023-04-09T11:15:18.569Z,41.07
2023-04-09T11:17:47.032Z,40.07
2023-04-09T11:20:15.128Z,36.53
2023-04-09T11:22:42.954Z,40.73
2023-04-09T11:25:17.311Z,42.87
2023-04-09T11:27:47.049Z,36.73
2023-04-09T11:30:15.163Z,38.40
2023-04-09T11:32:43.036Z,35.63
2023-04-09T11:35:15.002Z,37.53
2023-04-09T11:37:43.586Z,39.27
2023-04-09T11:40:16.818Z,34.07
2023-04-09T11:42:45.060Z,41.37
2023-04-09T11:45:13.267Z,35.77
2023-04-09T11:47:41.575Z,37.17
2023-04-09T11:50:11.184Z,34.30
2023-04-09T11:52:40.814Z,31.73
2023-04-09T11:55:09.449Z,35.50
2023-04-09T11:57:42.664Z,39.17
2023-04-09T12:00:12.076Z,36.03
2023-04-09T12:02:41.622Z,28.47
2023-04-09T12:05:11.400Z,37.10
2023-04-09T12:07:39.598Z,30.50
2023-04-09T12:10:10.144Z,37.37
2023-04-09T12:12:42.872Z,28.87
2023-04-09T12:15:20.409Z,29.80
2023-04-09T12:17:49.337Z,30.27
2023-04-09T12:20:30.758Z,23.70
2023-04-09T12:23:00.631Z,30.33
2023-04-09T12:25:28.632Z,30.40
2023-04-09T12:28:09.045Z,26.00
2023-04-09T12:30:36.884Z,30.73
2023-04-09T12:33:04.734Z,36.40
2023-04-09T12:35:32.380Z,26.87
2023-04-09T12:38:00.125Z,28.07
2023-04-09T12:40:27.883Z,25.40
2023-04-09T12:42:56.039Z,36.57
2023-04-09T12:45:23.502Z,29.80
2023-04-09T12:47:51.082Z,31.93
2023-04-09T12:50:18.492Z,28.10
2023-04-09T12:52:46.374Z,26.50
2023-04-09T12:55:14.562Z,23.87
2023-04-09T12:57:44.721Z,24.23
2023-04-09T13:00:13.984Z,25.77
2023-04-09T13:02:41.642Z,28.47
2023-04-09T13:05:09.783Z,27.70
2023-04-09T13:07:37.145Z,25.70
2023-04-09T13:10:04.963Z,15.93
2023-04-09T13:12:32.478Z,12.37
2023-04-09T13:14:59.883Z,23.63
2023-04-09T13:17:27.969Z,22.13
2023-04-09T13:19:55.406Z,25.10
2023-04-09T13:22:22.796Z,20.60
2023-04-09T13:24:50.385Z,17.90
2023-04-09T13:27:17.715Z,24.20
2023-04-09T13:29:44.995Z,30.60
2023-04-09T13:32:12.437Z,27.47
2023-04-09T13:34:41.855Z,28.40
2023-04-09T13:37:09.129Z,33.83
2023-04-09T13:39:36.427Z,25.37
2023-04-09T13:42:12.599Z,24.73
2023-04-09T13:44:41.507Z,26.63
2023-04-09T13:47:10.507Z,29.50
2023-04-09T13:49:37.865Z,28.00
2023-04-09T13:52:06.192Z,29.70
2023-04-09T13:54:33.820Z,30.43
2023-04-09T13:57:01.294Z,27.77
2023-04-09T13:59:29.159Z,32.17
2023-04-09T14:01:56.616Z,45.23
2023-04-09T14:04:24.110Z,26.60
2023-04-09T14:06:51.494Z,34.07
2023-04-09T14:09:19.540Z,37.43
2023-04-09T14:11:47.029Z,33.73
2023-04-09T14:14:14.366Z,33.93
2023-04-09T14:16:41.818Z,27.40
2023-04-09T14:19:09.726Z,34.87
2023-04-09T14:21:37.223Z,39.37
2023-04-09T14:24:05.383Z,35.37
2023-04-09T14:26:33.574Z,38.17
2023-04-09T14:29:00.958Z,43.37
2023-04-09T14:31:28.656Z,39.17
2023-04-09T14:33:56.184Z,35.47
2023-04-09T14:36:24.236Z,37.67
2023-04-09T14:38:52.533Z,34.07
2023-04-09T14:41:20.964Z,37.67
2023-04-09T14:43:49.300Z,33.40
2023-04-09T14:46:16.774Z,36.37
2023-04-09T14:48:44.167Z,30.87
2023-04-09T14:51:11.895Z,30.90
2023-04-09T14:53:39.318Z,29.80
2023-04-09T14:56:07.373Z,35.10
2023-04-09T14:58:34.694Z,29.83
2023-04-09T15:01:03.566Z,35.87
2023-04-09T15:03:31.265Z,38.27
2023-04-09T15:05:59.947Z,34.90
2023-04-09T15:08:27.226Z,29.73
2023-04-09T15:10:54.615Z,32.60
2023-04-09T15:13:22.057Z,31.67
2023-04-09T15:15:49.571Z,40.87
2023-04-09T15:18:18.682Z,32.43
2023-04-09T15:20:47.041Z,28.30
2023-04-09T15:23:14.386Z,32.70
2023-04-09T15:25:41.763Z,29.47
2023-04-09T15:28:09.246Z,29.13
2023-04-09T15:30:36.589Z,27.10
2023-04-09T15:33:05.597Z,27.90
2023-04-09T15:35:33.764Z,26.20
2023-04-09T15:38:01.074Z,27.10
2023-04-09T15:40:28.484Z,26.70
2023-04-09T15:42:55.803Z,27.73
2023-04-09T15:45:23.072Z,34.97
2023-04-09T15:47:50.396Z,33.77
2023-04-09T15:50:17.727Z,29.57
2023-04-09T15:52:45.769Z,28.17
2023-04-09T15:55:13.051Z,28.80
2023-04-09T15:57:40.600Z,31.10
2023-04-09T16:00:10.030Z,30.47
2023-04-09T16:02:38.144Z,31.93
2023-04-09T16:05:06.454Z,30.60
2023-04-09T16:07:33.872Z,26.73
2023-04-09T16:10:01.952Z,28.33
2023-04-09T16:12:29.307Z,28.43
2023-04-09T16:14:56.703Z,27.03
2023-04-09T16:17:24.382Z,30.23
2023-04-09T16:19:51.751Z,26.87
2023-04-09T16:22:19.119Z,31.30
2023-04-09T16:24:46.457Z,28.23
2023-04-09T16:27:15.236Z,29.00
2023-04-09T16:29:42.681Z,31.40
2023-04-09T16:32:10.054Z,25.17
2023-04-09T16:34:37.434Z,30.73
2023-04-09T16:37:04.912Z,28.30
2023-04-09T16:39:32.243Z,25.93
2023-04-09T16:42:00.856Z,28.37
2023-04-09T16:44:29.029Z,32.17
2023-04-09T16:46:56.377Z,26.20
2023-04-09T16:49:23.951Z,27.23
2023-04-09T16:51:52.422Z,28.87
2023-04-09T16:54:19.752Z,28.63
2023-04-09T16:56:48.052Z,28.53
2023-04-09T16:59:16.938Z,31.23
2023-04-09T17:01:45.153Z,30.37
2023-04-09T17:04:12.696Z,25.27
2023-04-09T17:06:40.025Z,31.17
2023-04-09T17:09:07.368Z,27.47
2023-04-09T17:11:34.793Z,29.20
2023-04-09T17:14:02.149Z,29.20
2023-04-09T17:16:29.951Z,30.60
2023-04-09T17:18:58.291Z,33.13
2023-04-09T17:21:26.128Z,30.73
2023-04-09T17:23:53.405Z,29.30
2023-04-09T17:26:20.761Z,36.70
2023-04-09T17:28:51.844Z,31.60
2023-04-09T17:31:23.445Z,33.27
2023-04-09T17:33:53.304Z,31.30
2023-04-09T17:36:22.252Z,29.80
2023-04-09T17:38:51.413Z,38.47
2023-04-09T17:41:18.901Z,31.13
2023-04-09T17:43:46.392Z,36.00
2023-04-09T17:46:13.714Z,37.67
2023-04-09T17:48:41.480Z,39.97
2023-04-09T17:51:14.014Z,35.23
2023-04-09T17:53:42.484Z,38.30
2023-04-09T17:56:14.012Z,42.47
2023-04-09T17:58:41.391Z,49.60
2023-04-09T18:01:09.053Z,36.20
2023-04-09T18:03:36.823Z,36.43
2023-04-09T18:06:06.341Z,37.87
2023-04-09T18:08:33.798Z,35.67
2023-04-09T18:11:11.939Z,38.83
2023-04-09T18:13:40.400Z,38.40
2023-04-09T18:16:09.423Z,36.37
2023-04-09T18:18:36.832Z,33.20
2023-04-09T18:21:05.432Z,31.80
2023-04-09T18:23:32.871Z,31.47
2023-04-09T18:26:02.836Z,39.27
2023-04-09T18:28:30.196Z,34.57
2023-04-09T18:30:58.098Z,30.73
2023-04-09T18:33:26.392Z,42.63
2023-04-09T18:35:53.988Z,32.33
2023-04-09T18:38:21.335Z,34.37
2023-04-09T18:40:48.735Z,38.03
2023-04-09T18:43:19.670Z,35.70
2023-04-09T18:45:47.041Z,36.83
2023-04-09T18:48:14.679Z,42.80
2023-04-09T18:50:42.101Z,35.30
2023-04-09T18:53:09.746Z,43.23
2023-04-09T18:55:37.449Z,39.40
2023-04-09T18:58:07.942Z,32.30
2023-04-09T19:00:36.050Z,36.33
2023-04-09T19:03:03.817Z,39.70
2023-04-09T19:05:31.808Z,40.60
2023-04-09T19:07:59.393Z,36.57
2023-04-09T19:10:27.538Z,38.37
2023-04-09T19:12:55.337Z,36.20
2023-04-09T19:15:25.378Z,43.23
2023-04-09T19:17:54.229Z,42.20
2023-04-09T19:20:21.766Z,38.27
2023-04-09T19:22:49.693Z,52.23
2023-04-09T19:25:17.538Z,35.03
2023-04-09T19:27:45.151Z,46.07
2023-04-09T19:30:13.174Z,42.10
2023-04-09T19:32:41.145Z,44.20
2023-04-09T19:35:09.793Z,45.73
2023-04-09T19:37:37.116Z,37.70
2023-04-09T19:40:05.223Z,45.20
2023-04-09T19:42:32.611Z,55.73
2023-04-09T19:44:59.960Z,38.67
2023-04-09T19:47:27.633Z,54.77
2023-04-09T19:49:55.261Z,34.73
2023-04-09T19:52:23.325Z,35.93
2023-04-09T19:54:54.729Z,33.50
2023-04-09T19:57:22.398Z,38.07
2023-04-09T19:59:51.526Z,38.47
2023-04-09T20:02:18.924Z,35.77
2023-04-09T20:04:46.250Z,35.27
2023-04-09T20:07:13.614Z,36.03
2023-04-09T20:09:41.792Z,37.33
2023-04-09T20:12:09.664Z,33.67
2023-04-09T20:14:38.532Z,40.27
2023-04-09T20:17:07.989Z,40.20
2023-04-09T20:19:35.579Z,37.50
2023-04-09T20:22:02.956Z,40.70
2023-04-09T20:24:30.256Z,36.00
2023-04-09T20:26:59.000Z,37.80
2023-04-09T20:29:26.423Z,40.60
2023-04-09T20:31:53.827Z,34.10
2023-04-09T20:34:25.832Z,35.33
2023-04-09T20:36:53.393Z,37.00
2023-04-09T20:39:21.043Z,38.30
2023-04-09T20:41:48.321Z,35.90
2023-04-09T20:44:16.382Z,37.33
2023-04-09T20:46:43.753Z,37.93
2023-04-09T20:49:11.553Z,38.40
2023-04-09T20:51:39.257Z,40.23
2023-04-09T20:54:06.566Z,35.50
2023-04-09T20:56:33.876Z,37.80
2023-04-09T20:59:01.222Z,37.10
2023-04-09T21:01:29.663Z,36.60
2023-04-09T21:03:57.121Z,34.70
2023-04-09T21:06:24.737Z,35.30
2023-04-09T21:08:52.192Z,43.30
2023-04-09T21:11:19.554Z,123.10
2023-04-09T21:13:54.714Z,79.03
2023-04-09T21:16:22.961Z,139.73
2023-04-09T21:18:51.332Z,46.30
2023-04-09T21:21:19.018Z,38.73
2023-04-09T21:23:46.525Z,40.43
2023-04-09T21:26:14.363Z,39.50
2023-04-09T21:28:41.894Z,42.10
2023-04-09T21:31:11.058Z,41.07
2023-04-09T21:33:39.042Z,39.13
2023-04-09T21:36:08.307Z,40.33
2023-04-09T21:38:35.859Z,38.97
2023-04-09T21:41:03.329Z,106.80
2023-04-09T21:43:30.627Z,80.93
2023-04-09T21:45:58.020Z,72.87
2023-04-09T21:48:25.719Z,46.80
2023-04-09T21:50:56.386Z,43.87
2023-04-09T21:53:24.898Z,45.93
2023-04-09T21:55:52.296Z,108.13
2023-04-09T21:58:19.586Z,126.67
2023-04-09T22:00:47.584Z,74.63
2023-04-09T22:03:15.263Z,38.20
2023-04-09T22:05:46.256Z,58.87
2023-04-09T22:08:13.667Z,151.50
2023-04-09T22:10:41.641Z,52.10
2023-04-09T22:13:08.890Z,38.77
2023-04-09T22:15:36.428Z,48.23
2023-04-09T22:18:06.116Z,46.33
2023-04-09T22:20:33.357Z,48.50
2023-04-09T22:23:00.631Z,109.57
2023-04-09T22:25:33.963Z,138.80
2023-04-09T22:28:05.153Z,220.40
2023-04-09T22:30:32.877Z,49.73
2023-04-09T22:33:01.313Z,42.03
2023-04-09T22:35:28.689Z,48.33
2023-04-09T22:37:55.998Z,50.27
2023-04-09T22:40:23.672Z,72.17
2023-04-09T22:42:51.088Z,76.00
2023-04-09T22:45:19.703Z,52.90
2023-04-09T22:47:47.253Z,50.70
2023-04-09T22:50:15.029Z,44.50
2023-04-09T22:52:42.400Z,65.37
2023-04-09T22:55:10.660Z,49.77
2023-04-09T22:57:37.956Z,39.00
2023-04-09T23:00:07.772Z,36.43
2023-04-09T23:02:36.429Z,36.03
2023-04-09T23:05:04.451Z,39.80
2023-04-09T23:07:31.797Z,67.70
2023-04-09T23:09:59.696Z,81.83
2023-04-09T23:12:26.959Z,49.80
2023-04-09T23:14:54.227Z,119.90
2023-04-09T23:17:23.687Z,74.77
2023-04-09T23:19:52.007Z,39.60
2023-04-09T23:22:19.354Z,37.63
2023-04-09T23:24:46.811Z,39.40
2023-04-09T23:27:14.706Z,42.20
2023-04-09T23:29:42.052Z,44.20
2023-04-09T23:32:09.331Z,40.17
2023-04-09T23:34:36.605Z,46.80
2023-04-09T23:37:04.704Z,48.70
2023-04-09T23:39:32.157Z,46.70
2023-04-09T23:41:59.409Z,42.63
2023-04-09T23:44:27.355Z,50.43
2023-04-09T23:46:54.998Z,44.63
2023-04-09T23:49:22.276Z,49.93
2023-04-09T23:51:51.496Z,66.47
2023-04-09T23:54:19.687Z,62.77
2023-04-09T23:56:47.174Z,46.17
2023-04-09T23:59:14.622Z,53.50
